Nearby METAR Reports

 

KSJC - San Jose, California, USA
Distance from station: NE 14km
Updated: 28/01/2020 15:53
Mostly cloudy
Mostly cloudy
 Wind from SSE
Wind: SSE 11 km/h
Temperature: 16°C
Dew Point: 9°C
Humidity: 63%
Barometer: 1027.8 hPa
Clouds: Mostly cloudy
Visibility: 16 km
Cloud details: Few Clouds 366 m
Mostly cloudy 792 m
2020/01/28 19:53 KSJC 281953Z 16006KT 10SM FEW012 BKN026 16/09 A3035 RMK AO2 SLP275 T01560094
KNUQ - Moffett Nas/Mtn, California, USA
Distance from station: N 14km
Updated: 21/11/2019 12:56
NOT Current

 
Barometer: 1011.2 hPa
2019/11/21 16:56 KNUQ 211656Z AUTO A2986 RMK AO2 SLP116 PWINO $
 
KPAO - Palo Alto, California, USA
Distance from station: NNW 23km
Updated: 28/01/2020 15:47
Nearby showers, Mostly cloudy
Nearby showers, Mostly cloudy
 Wind from E
Wind: E 13 km/h
Temperature: 15°C
Dew Point: 10°C
Humidity: 72%
Barometer: 1027.8 hPa
Summary: Nearby Showers
Clouds: Mostly cloudy
Visibility: 16 km
Cloud details: Mostly cloudy 792 m
Mostly cloudy 3658 m
2020/01/28 19:47 KPAO 281947Z 10007KT 10SM VCSH BKN026 BKN120 15/10 A3035
KRHV - San Jose/Reid, California, USA
Distance from station: ENE 19km
Updated: 28/01/2020 15:47
Mostly cloudy
Mostly cloudy
 Wind from calm
Wind: Calm
Temperature: 15°C
Dew Point: 9°C
Humidity: 68%
Barometer: 1028.1 hPa
Clouds: Mostly cloudy
Visibility: 16 km
Cloud details: Mostly cloudy 853 m
Mostly cloudy 1219 m
2020/01/28 19:47 KRHV 281947Z 00000KT 10SM BKN028 BKN040 15/09 A3036
 
KOAK - Oakland, California, USA
Distance from station: NNW 50km
Updated: 28/01/2020 15:53
Overcast
Overcast
 Wind from S
Wind: S 13 km/h
Temperature: 14°C
Dew Point: 12°C
Humidity: 88%
Barometer: 1027.8 hPa
Clouds: Overcast
Visibility: 16 km
Cloud details: Overcast 335 m
2020/01/28 19:53 KOAK 281953Z 17007KT 10SM OVC011 14/12 A3035 RMK AO2 RAB1854E08B17E39 SLP278 P0001 T01440117
KSQL - San Carlos Airpo, California, USA
Distance from station: NW 34km
Updated: 28/01/2020 15:47
Light rain, Overcast
Light rain, Overcast
 Wind from ENE
Wind: ENE 9 km/h
Temperature: 13°C
Dew Point: 11°C
Humidity: 88%
Barometer: 1028.4 hPa
Summary: Light rain
Clouds: Overcast
Visibility: 6 km
Cloud details: Overcast 457 m
2020/01/28 19:47 KSQL 281947Z 07005KT 4SM -RA OVC015 13/11 A3037
 
KSFO - San Francisco, California, USA
Distance from station: NW 49km
Updated: 28/01/2020 15:38
Overcast
Overcast
 Wind from S
Wind: S 15 km/h
Temperature: 14°C
Dew Point: 11°C
Humidity: 82%
Barometer: 1027.8 hPa
Clouds: Overcast
Visibility: 11 km
Cloud details: Overcast 488 m
2020/01/28 19:38 KSFO 281938Z 19008KT 7SM OVC016 14/11 A3035 RMK AO2 RAE19 P0000 T01440111
KE16 - San Martin, California, USA
Distance from station: ESE 43km
Updated: 14/11/2019 05:35
NOT Current
Overcast
Overcast
 Wind from SE
Wind: SE 11 km/h
Temperature: 12°C
Dew Point: 10°C
Humidity: 88%
Barometer: 1017.6 hPa
Clouds: Overcast
Visibility: 16 km
Cloud details: Overcast 427 m
2019/11/14 09:35 KE16 140935Z AUTO 13006KT 10SM OVC014 12/10 A3005 RMK AO2
 
KWVI - Watsonville, California, USA
Distance from station: SSE 44km
Updated: 28/01/2020 15:53
Mostly cloudy
Mostly cloudy
 Wind from SSE
Wind: SSE 7 km/h
Temperature: 16°C
Dew Point: 10°C
Humidity: 68%
Barometer: 1028.4 hPa
Clouds: Mostly cloudy
Visibility: 16 km
Cloud details: Mostly cloudy 945 m
2020/01/28 19:53 KWVI 281953Z AUTO 15004KT 10SM BKN031 16/10 A3037 RMK AO2 SLP283 T01560100
KHAF - Half Moon Bay, California, USA
Distance from station: WNW 50km
Updated: 28/01/2020 15:55
Light rain, Mostly cloudy
Light rain, Mostly cloudy
 Wind from SE
Wind: SE 11 km/h
Temperature: 12°C
Dew Point: 10°C
Humidity: 88%
Barometer: 1028.4 hPa
Summary: Light rain
Clouds: Mostly cloudy
Visibility: 0.8 km
Cloud details: Mostly cloudy 152 m
2020/01/28 19:55 KHAF 281955Z AUTO 14006KT 1/2SM -RA BKN005 12/10 A3037 RMK AO2 P0002
 
KHWD - Hayward, California, USA
Distance from station: N 44km
Updated: 28/01/2020 15:54
Overcast
Overcast
 Wind from S
Wind: S 15 km/h
Temperature: 14°C
Dew Point: 10°C
Humidity: 77%
Barometer: 1027.8 hPa
Clouds: Overcast
Visibility: 16 km
Cloud details: Mostly cloudy 518 m
Overcast 701 m
2020/01/28 19:54 KHWD 281954Z 17008KT 10SM BKN017 OVC023 14/10 A3035 RMK AO2 RAB14E27 SLP286 P0000 T01440100
KLVK - Livermore, California, USA
Distance from station: NNE 51km
Updated: 28/01/2020 15:53
Light rain, Mostly cloudy
Light rain, Mostly cloudy
 Wind from SW
Wind: SW 13 km/h
Temperature: 14°C
Dew Point: 11°C
Humidity: 82%
Barometer: 1027.4 hPa
Summary: Light rain
Clouds: Mostly cloudy
Visibility: 11 km
Cloud details: Partly cloudy 579 m
Mostly cloudy 853 m
Mostly cloudy 1372 m
2020/01/28 19:53 KLVK 281953Z 23007KT 7SM -RA SCT019 BKN028 BKN045 14/11 A3034 RMK AO2 RAB45 SLP274 P0000 T01440106